E.r.brandenburg — A8SZ5 — position and weather

sailwx.info

Track history (hours):
 
Tides and Currents Weather Stations Pressure Air Temp Water Temp Dewpoint Dewpoint Depression Visibility Wind Speed Wind Dir Waves Ship Positions

E.r.brandenburg

Last reported at 2016-Aug-29 04:33 UTC. Time now 2016-Aug-29 05:27 UTC.
Position N 34°14' E 135°08'.

Length 292 m; draft 12.9 m.

Type: Cargo ship. MMSI: 636091798.

Date/timePositionNaut miles runAvg speedWind from/ knotsBaromVisibWave heightAir tempDewpointWater temp
2016-Aug-29 04:33N 34°14' E 135°08'0 0.0
2016-Aug-29 03:33N 34°14' E 135°08'0 0.0
2016-Aug-29 02:33N 34°14' E 135°08'0 0.0
2016-Aug-29 01:33N 34°14' E 135°08'0 0.0
2016-Aug-29 00:33N 34°14' E 135°08'0 0.0
2016-Aug-28 23:33N 34°14' E 135°08'1 0.8
2016-Aug-28 22:33N 34°14' E 135°07'1 1.4
2016-Aug-28 21:32N 34°13' E 135°05'0 0.1
2016-Aug-28 20:32N 34°13' E 135°05'0 0.0
2016-Aug-28 19:32N 34°13' E 135°05'0 0.0
2016-Aug-28 18:32N 34°13' E 135°05'0 0.1
2016-Aug-28 17:32N 34°13' E 135°05'0 0.1
2016-Aug-28 16:32N 34°13' E 135°05'0 0.0
2016-Aug-28 15:32N 34°13' E 135°05'0 0.0
2016-Aug-28 14:32N 34°13' E 135°05'0 0.1
2016-Aug-28 13:32N 34°13' E 135°05'2 2.1
2016-Aug-28 12:33N 34°11' E 135°04'8 8.3
2016-Aug-28 11:33N 34°04' E 135°01'224 9.3
2016-Aug-27 11:22N 34°56' E 139°26'1111.1
2016-Aug-27 10:24N 35°02' E 139°37'1012.1
2016-Aug-27 09:34N 35°09' E 139°45'1110.9
2016-Aug-27 08:33N 35°20' E 139°42'7 7.0
2016-Aug-27 07:34N 35°23' E 139°50'2 2.2
2016-Aug-27 06:32N 35°22' E 139°52'0 0.0
2016-Aug-27 04:32N 35°22' E 139°52'0 0.0
2016-Aug-27 03:32N 35°22' E 139°52'0 0.0
2016-Aug-27 02:32N 35°22' E 139°52'0 0.0
2016-Aug-27 01:29N 35°22' E 139°52'0 0.0
2016-Aug-27 00:32N 35°22' E 139°52'0 0.0
2016-Aug-26 23:32N 35°22' E 139°52'0 0.0
2016-Aug-26 22:32N 35°22' E 139°52'0 0.0
2016-Aug-26 21:32N 35°22' E 139°52'0 0.0
2016-Aug-26 20:32N 35°22' E 139°52'0 0.0
2016-Aug-26 19:32N 35°22' E 139°52'0 0.0
2016-Aug-26 18:32N 35°22' E 139°52'0 0.0
2016-Aug-26 17:32N 35°22' E 139°52'0 0.0
2016-Aug-26 16:32N 35°22' E 139°52'0 0.0
2016-Aug-26 15:29N 35°22' E 139°52'0 0.0
2016-Aug-26 14:29N 35°22' E 139°52'0 0.0
2016-Aug-26 13:32N 35°22' E 139°52'0 0.0
2016-Aug-26 12:32N 35°22' E 139°52'0 0.0
2016-Aug-26 11:32N 35°22' E 139°52'0 0.0
2016-Aug-26 10:32N 35°22' E 139°52'0 0.0
2016-Aug-26 09:32N 35°22' E 139°52'0 0.0
2016-Aug-26 08:32N 35°22' E 139°52'0 0.0
2016-Aug-26 07:26N 35°22' E 139°52'0 0.0
2016-Aug-26 06:32N 35°22' E 139°52'0 0.0
2016-Aug-26 04:32N 35°22' E 139°52'0 0.0
2016-Aug-26 03:32N 35°22' E 139°52'0 0.0
2016-Aug-26 02:32N 35°22' E 139°52'0 0.0
2016-Aug-26 01:32N 35°22' E 139°52'0 0.0
2016-Aug-26 00:32N 35°22' E 139°52'0 0.0
2016-Aug-25 23:32N 35°22' E 139°52'0 0.0
2016-Aug-25 22:32N 35°22' E 139°52'0 0.0
2016-Aug-25 21:32N 35°22' E 139°52'0 0.0
2016-Aug-25 20:29N 35°22' E 139°52'0 0.0
2016-Aug-25 19:32N 35°22' E 139°52'0 0.0
2016-Aug-25 18:29N 35°22' E 139°52'0 0.0
2016-Aug-25 17:32N 35°22' E 139°52'0 0.0
2016-Aug-25 16:29N 35°22' E 139°52'0 0.0
2016-Aug-25 15:32N 35°22' E 139°52'0 0.0
2016-Aug-25 14:29N 35°22' E 139°52'0 0.0
2016-Aug-25 13:32N 35°22' E 139°52'0 0.0
2016-Aug-25 12:32N 35°22' E 139°52'0 0.0
2016-Aug-25 11:29N 35°22' E 139°52'0 0.0
2016-Aug-25 10:29N 35°22' E 139°52'0 0.0
2016-Aug-25 09:32N 35°22' E 139°52'0 0.0
2016-Aug-25 08:32N 35°22' E 139°52'0 0.0
2016-Aug-25 07:32N 35°22' E 139°52'0 0.0
2016-Aug-25 06:32N 35°22' E 139°52'2 1.2
2016-Aug-25 04:33N 35°23' E 139°50'2 2.3
2016-Aug-25 03:31N 35°25' E 139°49'0 0.1
2016-Aug-25 02:31N 35°25' E 139°49'0 0.2
2016-Aug-25 01:31N 35°26' E 139°49'0 0.1
2016-Aug-25 00:28N 35°26' E 139°49'0 0.0
2016-Aug-24 23:31N 35°26' E 139°49'0 0.1
2016-Aug-24 22:31N 35°26' E 139°49'0 0.0
2016-Aug-24 21:31N 35°26' E 139°49'0 0.1
2016-Aug-24 20:31N 35°26' E 139°49'0 0.1
2016-Aug-24 19:32N 35°26' E 139°49'0 0.0
2016-Aug-24 18:32N 35°26' E 139°49'0 0.0
2016-Aug-24 17:32N 35°26' E 139°49'0 0.0
2016-Aug-24 16:29N 35°25' E 139°49'0 0.0
2016-Aug-24 15:32N 35°25' E 139°49'0 0.0
2016-Aug-24 14:32N 35°26' E 139°49'0 0.2
2016-Aug-24 13:32N 35°26' E 139°49'0 0.1
2016-Aug-24 12:32N 35°26' E 139°49'0 0.1
2016-Aug-24 11:32N 35°26' E 139°49'0 0.0
2016-Aug-24 10:32N 35°26' E 139°49'0 0.0
2016-Aug-24 09:32N 35°26' E 139°49'0 0.0
2016-Aug-24 08:32N 35°26' E 139°49'0 0.0
2016-Aug-24 07:32N 35°26' E 139°49'0 0.0
2016-Aug-24 06:32N 35°26' E 139°49'0 0.1
2016-Aug-24 04:32N 35°26' E 139°49'0 0.0
2016-Aug-24 03:29N 35°26' E 139°49'0 0.1
2016-Aug-24 02:32N 35°26' E 139°49'0 0.2
2016-Aug-24 01:32N 35°26' E 139°49'0 0.0
2016-Aug-24 00:32N 35°26' E 139°49'0 0.0
2016-Aug-23 23:32N 35°26' E 139°49'0 0.0
2016-Aug-23 22:32N 35°26' E 139°49'0 0.0
2016-Aug-23 21:32N 35°26' E 139°49'0 0.1
2016-Aug-23 20:32N 35°26' E 139°49'0 0.0
2016-Aug-23 19:32N 35°26' E 139°49'0 0.1
2016-Aug-23 18:32N 35°26' E 139°49'2 3.3
2016-Aug-23 18:00N 35°24' E 139°48'2 3.7 040 / 101007.010.8 0.524.022.6
2016-Aug-23 17:32N 35°26' E 139°49'0 0.0
2016-Aug-23 16:32N 35°26' E 139°49'0 0.0
2016-Aug-23 15:32N 35°25' E 139°49'0 0.1
2016-Aug-23 14:29N 35°26' E 139°49'0 0.2
2016-Aug-23 13:32N 35°26' E 139°49'0 0.1
2016-Aug-23 12:32N 35°26' E 139°49'0 0.0
2016-Aug-23 11:32N 35°26' E 139°49'0 0.0
2016-Aug-23 10:32N 35°26' E 139°49'0 0.0
2016-Aug-23 09:32N 35°26' E 139°49'0 0.0
2016-Aug-23 08:32N 35°26' E 139°49'0 0.0
2016-Aug-23 07:32N 35°26' E 139°49'2 2.0
2016-Aug-23 06:34N 35°25' E 139°47'1010.3
2016-Aug-23 05:33N 35°15' E 139°47'1010.4
2016-Aug-23 04:34N 35°04' E 139°45'1110.9
2016-Aug-23 03:33N 34°53' E 139°46'1110.8
2016-Aug-23 02:31N 34°44' E 139°54'6 1.4
2016-Aug-22 22:08N 34°38' E 139°56'5012.1
2016-Aug-22 18:00N 33°54' E 140°24'20711.5 200 / 231004.0 5.4 2.027.025.7
2016-Aug-22 00:00N 31°00' E 142°36'7011.7 180 / 201009.010.8 2.028.025.3
2016-Aug-21 18:00N 30°00' E 143°18'13611.3 170 / 191007.0 5.4 1.527.025.7
2016-Aug-21 06:00N 28°06' E 144°42'6811.3 160 / 211007.0 5.4 1.529.226.3
2016-Aug-21 00:00N 27°00' E 145°00'7412.3 150 / 251008.010.8 2.029.026.3
2016-Aug-20 18:00N 25°48' E 145°18'13811.5 140 / 211004.0 5.4 1.527.026.3
2016-Aug-20 06:00N 23°30' E 145°30'6510.9 130 / 161002.0 5.4 1.531.527.6
2016-Aug-20 00:00N 22°42' E 144°42'6611.0 180 / 181002.010.8 2.030.027.4
2016-Aug-19 18:00N 21°36' E 144°42'7712.9 150 / 231000.0 5.4 2.029.025.6
2016-Aug-19 12:00N 20°24' E 145°12'7011.6 170 / 171002.010.8 2.028.026.7
2016-Aug-19 06:00N 19°18' E 145°36'   160 / 181000.0 5.4 2.031.026.4
Track history (hours):
 
Tides and Currents Weather Stations Pressure Air Temp Water Temp Dewpoint Dewpoint Depression Visibility Wind Speed Wind Dir Waves Ship Positions

E.r.brandenburg

Last reported at 2016-Aug-29 04:33 UTC. Time now 2016-Aug-29 05:27 UTC.
Position N 34°14' E 135°08'.

Length 292 m; draft 12.9 m.

Type: Cargo ship. MMSI: 636091798.

Date/timePositionNaut miles runAvg speedWind from/ knotsBaromVisibWave heightAir tempDewpointWater temp
2016-Aug-29 04:33N 34°14' E 135°08'0 0.0
2016-Aug-29 03:33N 34°14' E 135°08'0 0.0
2016-Aug-29 02:33N 34°14' E 135°08'0 0.0
2016-Aug-29 01:33N 34°14' E 135°08'0 0.0
2016-Aug-29 00:33N 34°14' E 135°08'0 0.0
2016-Aug-28 23:33N 34°14' E 135°08'1 0.8
2016-Aug-28 22:33N 34°14' E 135°07'1 1.4
2016-Aug-28 21:32N 34°13' E 135°05'0 0.1
2016-Aug-28 20:32N 34°13' E 135°05'0 0.0
2016-Aug-28 19:32N 34°13' E 135°05'0 0.0
2016-Aug-28 18:32N 34°13' E 135°05'0 0.1
2016-Aug-28 17:32N 34°13' E 135°05'0 0.1
2016-Aug-28 16:32N 34°13' E 135°05'0 0.0
2016-Aug-28 15:32N 34°13' E 135°05'0 0.0
2016-Aug-28 14:32N 34°13' E 135°05'0 0.1
2016-Aug-28 13:32N 34°13' E 135°05'2 2.1
2016-Aug-28 12:33N 34°11' E 135°04'8 8.3
2016-Aug-28 11:33N 34°04' E 135°01'224 9.3
2016-Aug-27 11:22N 34°56' E 139°26'1111.1
2016-Aug-27 10:24N 35°02' E 139°37'1012.1
2016-Aug-27 09:34N 35°09' E 139°45'1110.9
2016-Aug-27 08:33N 35°20' E 139°42'7 7.0
2016-Aug-27 07:34N 35°23' E 139°50'2 2.2
2016-Aug-27 06:32N 35°22' E 139°52'0 0.0
2016-Aug-27 04:32N 35°22' E 139°52'0 0.0
2016-Aug-27 03:32N 35°22' E 139°52'0 0.0
2016-Aug-27 02:32N 35°22' E 139°52'0 0.0
2016-Aug-27 01:29N 35°22' E 139°52'0 0.0
2016-Aug-27 00:32N 35°22' E 139°52'0 0.0
2016-Aug-26 23:32N 35°22' E 139°52'0 0.0
2016-Aug-26 22:32N 35°22' E 139°52'0 0.0
2016-Aug-26 21:32N 35°22' E 139°52'0 0.0
2016-Aug-26 20:32N 35°22' E 139°52'0 0.0
2016-Aug-26 19:32N 35°22' E 139°52'0 0.0
2016-Aug-26 18:32N 35°22' E 139°52'0 0.0
2016-Aug-26 17:32N 35°22' E 139°52'0 0.0
2016-Aug-26 16:32N 35°22' E 139°52'0 0.0
2016-Aug-26 15:29N 35°22' E 139°52'0 0.0
2016-Aug-26 14:29N 35°22' E 139°52'0 0.0
2016-Aug-26 13:32N 35°22' E 139°52'0 0.0
2016-Aug-26 12:32N 35°22' E 139°52'0 0.0
2016-Aug-26 11:32N 35°22' E 139°52'0 0.0
2016-Aug-26 10:32N 35°22' E 139°52'0 0.0
2016-Aug-26 09:32N 35°22' E 139°52'0 0.0
2016-Aug-26 08:32N 35°22' E 139°52'0 0.0
2016-Aug-26 07:26N 35°22' E 139°52'0 0.0
2016-Aug-26 06:32N 35°22' E 139°52'0 0.0
2016-Aug-26 04:32N 35°22' E 139°52'0 0.0
2016-Aug-26 03:32N 35°22' E 139°52'0 0.0
2016-Aug-26 02:32N 35°22' E 139°52'0 0.0
2016-Aug-26 01:32N 35°22' E 139°52'0 0.0
2016-Aug-26 00:32N 35°22' E 139°52'0 0.0
2016-Aug-25 23:32N 35°22' E 139°52'0 0.0
2016-Aug-25 22:32N 35°22' E 139°52'0 0.0
2016-Aug-25 21:32N 35°22' E 139°52'0 0.0
2016-Aug-25 20:29N 35°22' E 139°52'0 0.0
2016-Aug-25 19:32N 35°22' E 139°52'0 0.0
2016-Aug-25 18:29N 35°22' E 139°52'0 0.0
2016-Aug-25 17:32N 35°22' E 139°52'0 0.0
2016-Aug-25 16:29N 35°22' E 139°52'0 0.0
2016-Aug-25 15:32N 35°22' E 139°52'0 0.0
2016-Aug-25 14:29N 35°22' E 139°52'0 0.0
2016-Aug-25 13:32N 35°22' E 139°52'0 0.0
2016-Aug-25 12:32N 35°22' E 139°52'0 0.0
2016-Aug-25 11:29N 35°22' E 139°52'0 0.0
2016-Aug-25 10:29N 35°22' E 139°52'0 0.0
2016-Aug-25 09:32N 35°22' E 139°52'0 0.0
2016-Aug-25 08:32N 35°22' E 139°52'0 0.0
2016-Aug-25 07:32N 35°22' E 139°52'0 0.0
2016-Aug-25 06:32N 35°22' E 139°52'2 1.2
2016-Aug-25 04:33N 35°23' E 139°50'2 2.3
2016-Aug-25 03:31N 35°25' E 139°49'0 0.1
2016-Aug-25 02:31N 35°25' E 139°49'0 0.2
2016-Aug-25 01:31N 35°26' E 139°49'0 0.1
2016-Aug-25 00:28N 35°26' E 139°49'0 0.0
2016-Aug-24 23:31N 35°26' E 139°49'0 0.1
2016-Aug-24 22:31N 35°26' E 139°49'0 0.0
2016-Aug-24 21:31N 35°26' E 139°49'0 0.1
2016-Aug-24 20:31N 35°26' E 139°49'0 0.1
2016-Aug-24 19:32N 35°26' E 139°49'0 0.0
2016-Aug-24 18:32N 35°26' E 139°49'0 0.0
2016-Aug-24 17:32N 35°26' E 139°49'0 0.0
2016-Aug-24 16:29N 35°25' E 139°49'0 0.0
2016-Aug-24 15:32N 35°25' E 139°49'0 0.0
2016-Aug-24 14:32N 35°26' E 139°49'0 0.2
2016-Aug-24 13:32N 35°26' E 139°49'0 0.1
2016-Aug-24 12:32N 35°26' E 139°49'0 0.1
2016-Aug-24 11:32N 35°26' E 139°49'0 0.0
2016-Aug-24 10:32N 35°26' E 139°49'0 0.0
2016-Aug-24 09:32N 35°26' E 139°49'0 0.0
2016-Aug-24 08:32N 35°26' E 139°49'0 0.0
2016-Aug-24 07:32N 35°26' E 139°49'0 0.0
2016-Aug-24 06:32N 35°26' E 139°49'0 0.1
2016-Aug-24 04:32N 35°26' E 139°49'0 0.0
2016-Aug-24 03:29N 35°26' E 139°49'0 0.1
2016-Aug-24 02:32N 35°26' E 139°49'0 0.2
2016-Aug-24 01:32N 35°26' E 139°49'0 0.0
2016-Aug-24 00:32N 35°26' E 139°49'0 0.0
2016-Aug-23 23:32N 35°26' E 139°49'0 0.0
2016-Aug-23 22:32N 35°26' E 139°49'0 0.0
2016-Aug-23 21:32N 35°26' E 139°49'0 0.1
2016-Aug-23 20:32N 35°26' E 139°49'0 0.0
2016-Aug-23 19:32N 35°26' E 139°49'0 0.1
2016-Aug-23 18:32N 35°26' E 139°49'2 3.3
2016-Aug-23 18:00N 35°24' E 139°48'2 3.7 040 / 101007.010.8 0.524.022.6
2016-Aug-23 17:32N 35°26' E 139°49'0 0.0
2016-Aug-23 16:32N 35°26' E 139°49'0 0.0
2016-Aug-23 15:32N 35°25' E 139°49'0 0.1
2016-Aug-23 14:29N 35°26' E 139°49'0 0.2
2016-Aug-23 13:32N 35°26' E 139°49'0 0.1
2016-Aug-23 12:32N 35°26' E 139°49'0 0.0
2016-Aug-23 11:32N 35°26' E 139°49'0 0.0
2016-Aug-23 10:32N 35°26' E 139°49'0 0.0
2016-Aug-23 09:32N 35°26' E 139°49'0 0.0
2016-Aug-23 08:32N 35°26' E 139°49'0 0.0
2016-Aug-23 07:32N 35°26' E 139°49'2 2.0
2016-Aug-23 06:34N 35°25' E 139°47'1010.3
2016-Aug-23 05:33N 35°15' E 139°47'1010.4
2016-Aug-23 04:34N 35°04' E 139°45'1110.9
2016-Aug-23 03:33N 34°53' E 139°46'1110.8
2016-Aug-23 02:31N 34°44' E 139°54'6 1.4
2016-Aug-22 22:08N 34°38' E 139°56'5012.1
2016-Aug-22 18:00N 33°54' E 140°24'20711.5 200 / 231004.0 5.4 2.027.025.7
2016-Aug-22 00:00N 31°00' E 142°36'7011.7 180 / 201009.010.8 2.028.025.3
2016-Aug-21 18:00N 30°00' E 143°18'13611.3 170 / 191007.0 5.4 1.527.025.7
2016-Aug-21 06:00N 28°06' E 144°42'6811.3 160 / 211007.0 5.4 1.529.226.3
2016-Aug-21 00:00N 27°00' E 145°00'7412.3 150 / 251008.010.8 2.029.026.3
2016-Aug-20 18:00N 25°48' E 145°18'13811.5 140 / 211004.0 5.4 1.527.026.3
2016-Aug-20 06:00N 23°30' E 145°30'6510.9 130 / 161002.0 5.4 1.531.527.6
2016-Aug-20 00:00N 22°42' E 144°42'6611.0 180 / 181002.010.8 2.030.027.4
2016-Aug-19 18:00N 21°36' E 144°42'7712.9 150 / 231000.0 5.4 2.029.025.6
2016-Aug-19 12:00N 20°24' E 145°12'7011.6 170 / 171002.010.8 2.028.026.7
2016-Aug-19 06:00N 19°18' E 145°36'   160 / 181000.0 5.4 2.031.026.4

Dump ship's entire track history